createdAt,value
2018-12-30T21:45:51.358Z,3.70
2018-12-30T21:48:19.780Z,3.70
2018-12-30T21:50:48.207Z,3.80
2018-12-30T21:53:16.608Z,3.90
2018-12-30T21:55:45.038Z,3.90
2018-12-30T21:58:13.437Z,4.00
2018-12-30T22:00:41.880Z,4.00
2018-12-30T22:03:10.322Z,4.10
2018-12-30T22:05:38.750Z,4.20
2018-12-30T22:08:07.144Z,4.20
2018-12-30T22:10:35.554Z,4.30
2018-12-30T22:13:04.312Z,4.30
2018-12-30T22:15:32.782Z,4.40
2018-12-30T22:18:01.261Z,4.40
2018-12-30T22:20:29.697Z,4.40
2018-12-30T22:22:58.112Z,4.40
2018-12-30T22:25:26.521Z,4.40
2018-12-30T22:27:55.075Z,4.30
2018-12-30T22:30:23.511Z,4.30
2018-12-30T22:32:51.928Z,4.30
2018-12-30T22:35:20.373Z,4.60
2018-12-30T22:37:48.776Z,4.60
2018-12-30T22:40:17.274Z,4.50
2018-12-30T22:42:45.673Z,4.40
2018-12-30T22:45:14.175Z,4.40
2018-12-30T22:47:42.582Z,4.50
2018-12-30T22:50:10.992Z,4.50
2018-12-30T22:52:39.438Z,4.50
2018-12-30T22:55:07.858Z,4.50
2018-12-30T22:57:36.276Z,4.60
2018-12-30T23:00:07.537Z,4.60
2018-12-30T23:02:35.936Z,4.70
2018-12-30T23:05:04.813Z,4.70
2018-12-30T23:07:33.239Z,4.60
2018-12-30T23:10:01.636Z,4.50
2018-12-30T23:12:30.063Z,4.50
2018-12-30T23:14:58.536Z,4.50
2018-12-30T23:17:26.957Z,4.50
2018-12-30T23:19:55.375Z,4.40
2018-12-30T23:22:23.816Z,4.40
2018-12-30T23:24:52.338Z,4.40
2018-12-30T23:27:20.752Z,4.40
2018-12-30T23:29:49.160Z,4.40
2018-12-30T23:32:17.570Z,4.30
2018-12-30T23:34:46.003Z,4.40
2018-12-30T23:37:14.399Z,4.40
2018-12-30T23:39:42.855Z,4.40
2018-12-30T23:42:11.299Z,4.40
2018-12-30T23:44:39.751Z,4.50
2018-12-30T23:47:08.854Z,4.50
2018-12-30T23:49:37.240Z,4.50
2018-12-30T23:52:05.668Z,4.60
2018-12-30T23:54:34.080Z,4.60
2018-12-30T23:57:02.506Z,4.70
2018-12-30T23:59:30.987Z,4.70
